sensor_id;sensor_type;location;lat;lon;timestamp;P1;durP1;ratioP1;P2;durP2;ratioP2
69185;SDS011;56298;49.246;9.410;2024-01-25T00:01:54;18.90;;;3.40;;
69185;SDS011;56298;49.246;9.410;2024-01-25T00:04:19;20.23;;;3.37;;
69185;SDS011;56298;49.246;9.410;2024-01-25T00:06:45;20.67;;;3.20;;
69185;SDS011;56298;49.246;9.410;2024-01-25T00:09:10;18.43;;;3.13;;
69185;SDS011;56298;49.246;9.410;2024-01-25T00:11:35;19.93;;;3.37;;
69185;SDS011;56298;49.246;9.410;2024-01-25T00:14:00;20.17;;;3.43;;
69185;SDS011;56298;49.246;9.410;2024-01-25T00:16:26;15.27;;;3.07;;
69185;SDS011;56298;49.246;9.410;2024-01-25T00:18:52;15.25;;;2.97;;
69185;SDS011;56298;49.246;9.410;2024-01-25T00:21:17;20.43;;;3.17;;
69185;SDS011;56298;49.246;9.410;2024-01-25T00:23:43;16.50;;;2.90;;
69185;SDS011;56298;49.246;9.410;2024-01-25T00:26:08;20.50;;;3.50;;
69185;SDS011;56298;49.246;9.410;2024-01-25T00:28:33;18.43;;;3.13;;
69185;SDS011;56298;49.246;9.410;2024-01-25T00:30:58;19.50;;;3.13;;
69185;SDS011;56298;49.246;9.410;2024-01-25T00:33:24;21.80;;;3.20;;
69185;SDS011;56298;49.246;9.410;2024-01-25T00:35:49;22.50;;;3.20;;
69185;SDS011;56298;49.246;9.410;2024-01-25T00:38:15;24.70;;;3.60;;
69185;SDS011;56298;49.246;9.410;2024-01-25T00:40:41;22.23;;;3.42;;
69185;SDS011;56298;49.246;9.410;2024-01-25T00:43:06;22.60;;;3.60;;
69185;SDS011;56298;49.246;9.410;2024-01-25T00:45:32;18.50;;;3.30;;
69185;SDS011;56298;49.246;9.410;2024-01-25T00:47:57;20.97;;;3.57;;
69185;SDS011;56298;49.246;9.410;2024-01-25T00:50:23;21.97;;;3.30;;
69185;SDS011;56298;49.246;9.410;2024-01-25T00:52:49;18.88;;;3.45;;
69185;SDS011;56298;49.246;9.410;2024-01-25T00:55:15;21.73;;;3.70;;
69185;SDS011;56298;49.246;9.410;2024-01-25T00:57:40;19.10;;;3.55;;
69185;SDS011;56298;49.246;9.410;2024-01-25T01:00:06;23.23;;;3.70;;
69185;SDS011;56298;49.246;9.410;2024-01-25T01:02:39;18.25;;;3.22;;
69185;SDS011;56298;49.246;9.410;2024-01-25T01:05:07;20.33;;;3.60;;
69185;SDS011;56298;49.246;9.410;2024-01-25T01:07:33;21.75;;;3.83;;
69185;SDS011;56298;49.246;9.410;2024-01-25T01:09:59;21.53;;;3.50;;
69185;SDS011;56298;49.246;9.410;2024-01-25T01:12:24;22.07;;;3.77;;
69185;SDS011;56298;49.246;9.410;2024-01-25T01:14:49;19.63;;;3.40;;
69185;SDS011;56298;49.246;9.410;2024-01-25T01:17:15;21.70;;;3.33;;
69185;SDS011;56298;49.246;9.410;2024-01-25T01:19:40;20.90;;;3.47;;
69185;SDS011;56298;49.246;9.410;2024-01-25T01:22:05;19.87;;;3.13;;
69185;SDS011;56298;49.246;9.410;2024-01-25T01:24:31;20.27;;;3.83;;
69185;SDS011;56298;49.246;9.410;2024-01-25T01:26:56;23.03;;;3.60;;
69185;SDS011;56298;49.246;9.410;2024-01-25T01:29:21;22.33;;;3.50;;
69185;SDS011;56298;49.246;9.410;2024-01-25T01:31:47;18.23;;;2.90;;
69185;SDS011;56298;49.246;9.410;2024-01-25T01:34:12;23.27;;;3.60;;
69185;SDS011;56298;49.246;9.410;2024-01-25T01:36:38;20.92;;;3.60;;
69185;SDS011;56298;49.246;9.410;2024-01-25T01:39:03;20.20;;;3.63;;
69185;SDS011;56298;49.246;9.410;2024-01-25T01:41:29;23.70;;;3.83;;
69185;SDS011;56298;49.246;9.410;2024-01-25T01:43:54;21.87;;;3.50;;
69185;SDS011;56298;49.246;9.410;2024-01-25T01:46:31;22.43;;;4.03;;
69185;SDS011;56298;49.246;9.410;2024-01-25T01:49:01;19.33;;;3.53;;
69185;SDS011;56298;49.246;9.410;2024-01-25T01:51:28;22.83;;;3.88;;
69185;SDS011;56298;49.246;9.410;2024-01-25T01:53:54;23.35;;;3.67;;
69185;SDS011;56298;49.246;9.410;2024-01-25T01:56:21;21.67;;;3.70;;
69185;SDS011;56298;49.246;9.410;2024-01-25T01:58:47;18.95;;;3.38;;
69185;SDS011;56298;49.246;9.410;2024-01-25T02:01:13;21.95;;;3.45;;
69185;SDS011;56298;49.246;9.410;2024-01-25T02:03:38;19.37;;;3.53;;
69185;SDS011;56298;49.246;9.410;2024-01-25T02:06:04;23.13;;;3.70;;
69185;SDS011;56298;49.246;9.410;2024-01-25T02:08:31;17.85;;;3.10;;
69185;SDS011;56298;49.246;9.410;2024-01-25T02:10:57;20.07;;;3.20;;
69185;SDS011;56298;49.246;9.410;2024-01-25T02:13:22;18.33;;;3.47;;
69185;SDS011;56298;49.246;9.410;2024-01-25T02:15:47;20.03;;;3.50;;
69185;SDS011;56298;49.246;9.410;2024-01-25T02:18:13;19.73;;;3.40;;
69185;SDS011;56298;49.246;9.410;2024-01-25T02:20:38;20.77;;;3.30;;
69185;SDS011;56298;49.246;9.410;2024-01-25T02:23:03;22.83;;;3.53;;
69185;SDS011;56298;49.246;9.410;2024-01-25T02:25:29;23.97;;;3.47;;
69185;SDS011;56298;49.246;9.410;2024-01-25T02:27:54;18.38;;;3.30;;
69185;SDS011;56298;49.246;9.410;2024-01-25T02:30:19;20.17;;;3.20;;
69185;SDS011;56298;49.246;9.410;2024-01-25T02:32:44;26.73;;;3.47;;
69185;SDS011;56298;49.246;9.410;2024-01-25T02:35:10;20.00;;;3.30;;
69185;SDS011;56298;49.246;9.410;2024-01-25T02:37:35;22.20;;;3.50;;
69185;SDS011;56298;49.246;9.410;2024-01-25T02:40:00;22.27;;;3.60;;
69185;SDS011;56298;49.246;9.410;2024-01-25T02:42:25;22.05;;;3.45;;
69185;SDS011;56298;49.246;9.410;2024-01-25T02:44:51;18.47;;;3.03;;
69185;SDS011;56298;49.246;9.410;2024-01-25T02:47:16;23.17;;;3.43;;
69185;SDS011;56298;49.246;9.410;2024-01-25T02:49:41;19.13;;;3.80;;
69185;SDS011;56298;49.246;9.410;2024-01-25T02:52:06;22.53;;;3.60;;
69185;SDS011;56298;49.246;9.410;2024-01-25T02:54:34;19.47;;;3.43;;
69185;SDS011;56298;49.246;9.410;2024-01-25T02:57:01;20.10;;;3.70;;
69185;SDS011;56298;49.246;9.410;2024-01-25T02:59:26;19.98;;;3.35;;
69185;SDS011;56298;49.246;9.410;2024-01-25T03:01:52;19.93;;;3.80;;
69185;SDS011;56298;49.246;9.410;2024-01-25T03:04:19;22.42;;;3.60;;
69185;SDS011;56298;49.246;9.410;2024-01-25T03:06:44;21.27;;;3.27;;
69185;SDS011;56298;49.246;9.410;2024-01-25T03:09:09;16.93;;;3.63;;
69185;SDS011;56298;49.246;9.410;2024-01-25T03:11:34;18.53;;;3.27;;
69185;SDS011;56298;49.246;9.410;2024-01-25T03:14:00;22.07;;;3.87;;
69185;SDS011;56298;49.246;9.410;2024-01-25T03:16:25;19.97;;;3.30;;
69185;SDS011;56298;49.246;9.410;2024-01-25T03:18:50;21.37;;;3.43;;
69185;SDS011;56298;49.246;9.410;2024-01-25T03:21:15;20.23;;;3.17;;
69185;SDS011;56298;49.246;9.410;2024-01-25T03:23:41;19.43;;;3.43;;
69185;SDS011;56298;49.246;9.410;2024-01-25T03:26:06;19.60;;;3.23;;
69185;SDS011;56298;49.246;9.410;2024-01-25T03:28:33;21.70;;;3.70;;
69185;SDS011;56298;49.246;9.410;2024-01-25T03:30:59;19.13;;;3.42;;
69185;SDS011;56298;49.246;9.410;2024-01-25T03:33:25;19.07;;;3.63;;
69185;SDS011;56298;49.246;9.410;2024-01-25T03:35:51;20.10;;;3.15;;
69185;SDS011;56298;49.246;9.410;2024-01-25T03:38:16;17.00;;;3.27;;
69185;SDS011;56298;49.246;9.410;2024-01-25T03:40:42;19.97;;;3.50;;
69185;SDS011;56298;49.246;9.410;2024-01-25T03:43:07;21.00;;;3.80;;
69185;SDS011;56298;49.246;9.410;2024-01-25T03:45:32;20.07;;;3.23;;
69185;SDS011;56298;49.246;9.410;2024-01-25T03:47:58;22.83;;;3.60;;
69185;SDS011;56298;49.246;9.410;2024-01-25T03:50:23;17.05;;;3.20;;
69185;SDS011;56298;49.246;9.410;2024-01-25T03:52:49;22.75;;;3.75;;
69185;SDS011;56298;49.246;9.410;2024-01-25T03:55:14;22.50;;;3.20;;
69185;SDS011;56298;49.246;9.410;2024-01-25T03:57:39;23.03;;;3.57;;
69185;SDS011;56298;49.246;9.410;2024-01-25T04:00:05;17.52;;;3.13;;
69185;SDS011;56298;49.246;9.410;2024-01-25T04:02:31;19.42;;;3.67;;
69185;SDS011;56298;49.246;9.410;2024-01-25T04:04:57;24.70;;;3.78;;
69185;SDS011;56298;49.246;9.410;2024-01-25T04:07:22;21.17;;;3.30;;
69185;SDS011;56298;49.246;9.410;2024-01-25T04:09:47;23.47;;;3.70;;
69185;SDS011;56298;49.246;9.410;2024-01-25T04:12:12;14.70;;;3.30;;
69185;SDS011;56298;49.246;9.410;2024-01-25T04:14:37;19.70;;;3.47;;
69185;SDS011;56298;49.246;9.410;2024-01-25T04:17:03;18.53;;;3.00;;
69185;SDS011;56298;49.246;9.410;2024-01-25T04:19:28;18.77;;;3.40;;
69185;SDS011;56298;49.246;9.410;2024-01-25T04:21:53;21.70;;;3.80;;
69185;SDS011;56298;49.246;9.410;2024-01-25T04:24:19;22.13;;;3.60;;
69185;SDS011;56298;49.246;9.410;2024-01-25T04:26:44;23.23;;;3.70;;
69185;SDS011;56298;49.246;9.410;2024-01-25T04:29:09;21.43;;;3.83;;
69185;SDS011;56298;49.246;9.410;2024-01-25T04:31:34;22.07;;;3.70;;
69185;SDS011;56298;49.246;9.410;2024-01-25T04:34:00;20.63;;;3.53;;
69185;SDS011;56298;49.246;9.410;2024-01-25T04:36:25;21.97;;;3.50;;
69185;SDS011;56298;49.246;9.410;2024-01-25T04:38:50;23.73;;;4.03;;
69185;SDS011;56298;49.246;9.410;2024-01-25T04:41:15;23.53;;;3.73;;
69185;SDS011;56298;49.246;9.410;2024-01-25T04:43:41;21.73;;;3.47;;
69185;SDS011;56298;49.246;9.410;2024-01-25T04:46:06;21.93;;;3.57;;
69185;SDS011;56298;49.246;9.410;2024-01-25T04:48:32;21.85;;;3.60;;
69185;SDS011;56298;49.246;9.410;2024-01-25T04:50:57;22.53;;;3.77;;
69185;SDS011;56298;49.246;9.410;2024-01-25T04:53:25;21.23;;;3.85;;
69185;SDS011;56298;49.246;9.410;2024-01-25T04:55:51;22.20;;;4.13;;
69185;SDS011;56298;49.246;9.410;2024-01-25T04:58:16;21.17;;;3.90;;
69185;SDS011;56298;49.246;9.410;2024-01-25T05:00:41;18.17;;;3.63;;
69185;SDS011;56298;49.246;9.410;2024-01-25T05:03:06;21.43;;;3.60;;
69185;SDS011;56298;49.246;9.410;2024-01-25T05:05:32;24.67;;;3.50;;
69185;SDS011;56298;49.246;9.410;2024-01-25T05:07:57;21.33;;;3.27;;
69185;SDS011;56298;49.246;9.410;2024-01-25T05:10:22;23.97;;;4.40;;
69185;SDS011;56298;49.246;9.410;2024-01-25T05:12:48;22.27;;;4.30;;
69185;SDS011;56298;49.246;9.410;2024-01-25T05:15:16;22.23;;;3.80;;
69185;SDS011;56298;49.246;9.410;2024-01-25T05:17:41;18.87;;;3.33;;
69185;SDS011;56298;49.246;9.410;2024-01-25T05:20:07;17.10;;;3.30;;
69185;SDS011;56298;49.246;9.410;2024-01-25T05:22:32;21.83;;;3.50;;
69185;SDS011;56298;49.246;9.410;2024-01-25T05:25:04;19.23;;;3.72;;
69185;SDS011;56298;49.246;9.410;2024-01-25T05:27:31;23.35;;;3.53;;
69185;SDS011;56298;49.246;9.410;2024-01-25T05:29:56;21.17;;;3.40;;
69185;SDS011;56298;49.246;9.410;2024-01-25T05:32:21;20.17;;;3.47;;
69185;SDS011;56298;49.246;9.410;2024-01-25T05:34:46;22.93;;;4.03;;
69185;SDS011;56298;49.246;9.410;2024-01-25T05:37:11;26.80;;;5.93;;
69185;SDS011;56298;49.246;9.410;2024-01-25T05:39:37;28.47;;;6.63;;
69185;SDS011;56298;49.246;9.410;2024-01-25T05:42:02;28.07;;;6.73;;
69185;SDS011;56298;49.246;9.410;2024-01-25T05:44:27;35.88;;;10.90;;
69185;SDS011;56298;49.246;9.410;2024-01-25T05:46:53;36.37;;;8.73;;
69185;SDS011;56298;49.246;9.410;2024-01-25T05:49:18;36.37;;;6.83;;
69185;SDS011;56298;49.246;9.410;2024-01-25T05:51:43;31.93;;;6.27;;
69185;SDS011;56298;49.246;9.410;2024-01-25T05:54:08;22.70;;;5.77;;
69185;SDS011;56298;49.246;9.410;2024-01-25T05:56:33;26.67;;;7.57;;
69185;SDS011;56298;49.246;9.410;2024-01-25T05:58:59;30.47;;;7.73;;
69185;SDS011;56298;49.246;9.410;2024-01-25T06:01:24;39.40;;;12.33;;
69185;SDS011;56298;49.246;9.410;2024-01-25T06:03:49;23.70;;;5.80;;
69185;SDS011;56298;49.246;9.410;2024-01-25T06:06:15;23.93;;;5.30;;
69185;SDS011;56298;49.246;9.410;2024-01-25T06:08:40;20.73;;;4.90;;
69185;SDS011;56298;49.246;9.410;2024-01-25T06:11:05;20.77;;;4.30;;
69185;SDS011;56298;49.246;9.410;2024-01-25T06:13:31;22.83;;;4.23;;
69185;SDS011;56298;49.246;9.410;2024-01-25T06:15:57;20.15;;;4.00;;
69185;SDS011;56298;49.246;9.410;2024-01-25T06:18:22;21.50;;;4.33;;
69185;SDS011;56298;49.246;9.410;2024-01-25T06:20:47;23.37;;;5.10;;
69185;SDS011;56298;49.246;9.410;2024-01-25T06:23:12;21.60;;;4.40;;
69185;SDS011;56298;49.246;9.410;2024-01-25T06:25:37;24.10;;;4.93;;
69185;SDS011;56298;49.246;9.410;2024-01-25T06:28:03;23.20;;;5.83;;
69185;SDS011;56298;49.246;9.410;2024-01-25T06:30:29;26.37;;;6.03;;
69185;SDS011;56298;49.246;9.410;2024-01-25T06:32:54;24.70;;;6.03;;
69185;SDS011;56298;49.246;9.410;2024-01-25T06:35:19;20.70;;;5.57;;
69185;SDS011;56298;49.246;9.410;2024-01-25T06:37:44;20.37;;;4.83;;
69185;SDS011;56298;49.246;9.410;2024-01-25T06:40:10;22.83;;;4.73;;
69185;SDS011;56298;49.246;9.410;2024-01-25T06:42:35;23.70;;;4.67;;
69185;SDS011;56298;49.246;9.410;2024-01-25T06:45:01;20.53;;;4.10;;
69185;SDS011;56298;49.246;9.410;2024-01-25T06:47:26;30.27;;;4.93;;
69185;SDS011;56298;49.246;9.410;2024-01-25T06:49:51;25.60;;;5.10;;
69185;SDS011;56298;49.246;9.410;2024-01-25T06:52:17;26.33;;;7.23;;
69185;SDS011;56298;49.246;9.410;2024-01-25T06:54:43;41.73;;;16.27;;
69185;SDS011;56298;49.246;9.410;2024-01-25T06:57:08;36.97;;;15.63;;
69185;SDS011;56298;49.246;9.410;2024-01-25T06:59:33;36.20;;;11.87;;
69185;SDS011;56298;49.246;9.410;2024-01-25T07:01:58;29.87;;;9.07;;
69185;SDS011;56298;49.246;9.410;2024-01-25T07:04:24;29.10;;;8.33;;
69185;SDS011;56298;49.246;9.410;2024-01-25T07:06:49;27.23;;;7.80;;
69185;SDS011;56298;49.246;9.410;2024-01-25T07:09:17;29.77;;;8.00;;
69185;SDS011;56298;49.246;9.410;2024-01-25T07:11:45;28.30;;;10.88;;
69185;SDS011;56298;49.246;9.410;2024-01-25T07:14:11;31.33;;;8.47;;
69185;SDS011;56298;49.246;9.410;2024-01-25T07:16:36;29.57;;;7.30;;
69185;SDS011;56298;49.246;9.410;2024-01-25T07:19:02;26.97;;;7.13;;
69185;SDS011;56298;49.246;9.410;2024-01-25T07:21:28;22.88;;;6.50;;
69185;SDS011;56298;49.246;9.410;2024-01-25T07:23:53;23.57;;;7.10;;
69185;SDS011;56298;49.246;9.410;2024-01-25T07:26:18;25.27;;;6.17;;
69185;SDS011;56298;49.246;9.410;2024-01-25T07:28:44;24.83;;;5.67;;
69185;SDS011;56298;49.246;9.410;2024-01-25T07:31:09;24.87;;;5.83;;
69185;SDS011;56298;49.246;9.410;2024-01-25T07:33:35;24.70;;;6.00;;
69185;SDS011;56298;49.246;9.410;2024-01-25T07:36:01;24.05;;;6.00;;
69185;SDS011;56298;49.246;9.410;2024-01-25T07:38:27;24.00;;;5.88;;
69185;SDS011;56298;49.246;9.410;2024-01-25T07:40:53;23.23;;;5.93;;
69185;SDS011;56298;49.246;9.410;2024-01-25T07:43:18;23.07;;;5.63;;
69185;SDS011;56298;49.246;9.410;2024-01-25T07:45:43;23.27;;;5.47;;
69185;SDS011;56298;49.246;9.410;2024-01-25T07:48:08;36.17;;;13.10;;
69185;SDS011;56298;49.246;9.410;2024-01-25T07:50:33;25.67;;;7.97;;
69185;SDS011;56298;49.246;9.410;2024-01-25T07:52:59;20.23;;;5.30;;
69185;SDS011;56298;49.246;9.410;2024-01-25T07:55:26;23.77;;;5.20;;
69185;SDS011;56298;49.246;9.410;2024-01-25T07:57:51;23.15;;;4.82;;
69185;SDS011;56298;49.246;9.410;2024-01-25T08:00:16;24.87;;;4.97;;
69185;SDS011;56298;49.246;9.410;2024-01-25T08:02:42;23.80;;;5.23;;
69185;SDS011;56298;49.246;9.410;2024-01-25T08:05:09;25.80;;;4.93;;
69185;SDS011;56298;49.246;9.410;2024-01-25T08:07:36;24.77;;;5.60;;
69185;SDS011;56298;49.246;9.410;2024-01-25T08:10:02;25.88;;;6.10;;
69185;SDS011;56298;49.246;9.410;2024-01-25T08:12:29;25.42;;;6.40;;
69185;SDS011;56298;49.246;9.410;2024-01-25T08:14:54;20.77;;;6.10;;
69185;SDS011;56298;49.246;9.410;2024-01-25T08:17:20;27.57;;;6.17;;
69185;SDS011;56298;49.246;9.410;2024-01-25T08:19:45;18.80;;;6.13;;
69185;SDS011;56298;49.246;9.410;2024-01-25T08:22:11;17.92;;;4.18;;
69185;SDS011;56298;49.246;9.410;2024-01-25T08:24:37;23.00;;;5.43;;
69185;SDS011;56298;49.246;9.410;2024-01-25T08:27:04;21.50;;;5.40;;
69185;SDS011;56298;49.246;9.410;2024-01-25T08:29:29;19.73;;;5.50;;
69185;SDS011;56298;49.246;9.410;2024-01-25T08:31:55;19.57;;;5.00;;
69185;SDS011;56298;49.246;9.410;2024-01-25T08:34:20;20.57;;;5.10;;
69185;SDS011;56298;49.246;9.410;2024-01-25T08:36:46;20.97;;;4.90;;
69185;SDS011;56298;49.246;9.410;2024-01-25T08:39:11;18.53;;;4.63;;
69185;SDS011;56298;49.246;9.410;2024-01-25T08:41:36;22.67;;;4.80;;
69185;SDS011;56298;49.246;9.410;2024-01-25T08:44:02;21.48;;;4.68;;
69185;SDS011;56298;49.246;9.410;2024-01-25T08:46:28;20.45;;;4.50;;
69185;SDS011;56298;49.246;9.410;2024-01-25T08:48:53;16.92;;;4.60;;
69185;SDS011;56298;49.246;9.410;2024-01-25T08:51:18;19.83;;;4.67;;
69185;SDS011;56298;49.246;9.410;2024-01-25T08:53:43;18.87;;;4.83;;
69185;SDS011;56298;49.246;9.410;2024-01-25T08:56:09;22.87;;;6.60;;
69185;SDS011;56298;49.246;9.410;2024-01-25T08:58:34;20.17;;;5.33;;
69185;SDS011;56298;49.246;9.410;2024-01-25T09:00:59;18.30;;;5.07;;
69185;SDS011;56298;49.246;9.410;2024-01-25T09:03:25;26.97;;;5.53;;
69185;SDS011;56298;49.246;9.410;2024-01-25T09:05:51;20.95;;;5.35;;
69185;SDS011;56298;49.246;9.410;2024-01-25T09:08:16;19.48;;;5.22;;
69185;SDS011;56298;49.246;9.410;2024-01-25T09:10:42;22.43;;;5.70;;
69185;SDS011;56298;49.246;9.410;2024-01-25T09:13:08;23.57;;;5.10;;
69185;SDS011;56298;49.246;9.410;2024-01-25T09:15:33;21.13;;;5.15;;
69185;SDS011;56298;49.246;9.410;2024-01-25T09:17:59;22.27;;;4.73;;
69185;SDS011;56298;49.246;9.410;2024-01-25T09:20:24;19.60;;;5.07;;
69185;SDS011;56298;49.246;9.410;2024-01-25T09:22:50;21.48;;;5.20;;
69185;SDS011;56298;49.246;9.410;2024-01-25T09:25:16;16.77;;;4.60;;
69185;SDS011;56298;49.246;9.410;2024-01-25T09:27:41;23.93;;;5.17;;
69185;SDS011;56298;49.246;9.410;2024-01-25T09:30:06;23.37;;;5.43;;
69185;SDS011;56298;49.246;9.410;2024-01-25T09:32:33;23.83;;;5.20;;
69185;SDS011;56298;49.246;9.410;2024-01-25T09:34:59;23.87;;;4.93;;
69185;SDS011;56298;49.246;9.410;2024-01-25T09:37:24;18.53;;;4.20;;
69185;SDS011;56298;49.246;9.410;2024-01-25T09:39:50;20.93;;;4.10;;
69185;SDS011;56298;49.246;9.410;2024-01-25T09:42:16;20.35;;;4.50;;
69185;SDS011;56298;49.246;9.410;2024-01-25T09:44:42;20.53;;;4.00;;
69185;SDS011;56298;49.246;9.410;2024-01-25T09:47:08;17.50;;;4.00;;
69185;SDS011;56298;49.246;9.410;2024-01-25T09:49:33;19.37;;;3.77;;
69185;SDS011;56298;49.246;9.410;2024-01-25T09:51:59;19.85;;;3.80;;
69185;SDS011;56298;49.246;9.410;2024-01-25T09:54:28;22.37;;;4.13;;
69185;SDS011;56298;49.246;9.410;2024-01-25T09:56:59;19.55;;;3.75;;
69185;SDS011;56298;49.246;9.410;2024-01-25T09:59:25;22.25;;;3.78;;
69185;SDS011;56298;49.246;9.410;2024-01-25T10:01:51;19.05;;;4.07;;
69185;SDS011;56298;49.246;9.410;2024-01-25T10:04:16;22.23;;;4.10;;
69185;SDS011;56298;49.246;9.410;2024-01-25T10:06:44;19.67;;;4.17;;
69185;SDS011;56298;49.246;9.410;2024-01-25T10:09:09;18.73;;;4.03;;
69185;SDS011;56298;49.246;9.410;2024-01-25T10:11:35;21.43;;;4.20;;
69185;SDS011;56298;49.246;9.410;2024-01-25T10:14:01;17.15;;;3.90;;
69185;SDS011;56298;49.246;9.410;2024-01-25T10:16:26;21.20;;;4.10;;
69185;SDS011;56298;49.246;9.410;2024-01-25T10:18:52;23.85;;;3.63;;
69185;SDS011;56298;49.246;9.410;2024-01-25T10:21:18;19.45;;;4.15;;
69185;SDS011;56298;49.246;9.410;2024-01-25T10:23:43;20.67;;;4.30;;
69185;SDS011;56298;49.246;9.410;2024-01-25T10:26:10;19.42;;;4.25;;
69185;SDS011;56298;49.246;9.410;2024-01-25T10:28:36;17.40;;;3.73;;
69185;SDS011;56298;49.246;9.410;2024-01-25T10:31:01;21.43;;;4.47;;
69185;SDS011;56298;49.246;9.410;2024-01-25T10:33:29;76.65;;;14.35;;
69185;SDS011;56298;49.246;9.410;2024-01-25T10:35:55;41.50;;;11.98;;
69185;SDS011;56298;49.246;9.410;2024-01-25T10:38:26;29.90;;;8.60;;
69185;SDS011;56298;49.246;9.410;2024-01-25T10:40:54;25.75;;;7.47;;
69185;SDS011;56298;49.246;9.410;2024-01-25T10:43:20;28.63;;;5.53;;
69185;SDS011;56298;49.246;9.410;2024-01-25T10:45:45;26.43;;;6.47;;
69185;SDS011;56298;49.246;9.410;2024-01-25T10:48:11;28.42;;;7.55;;
69185;SDS011;56298;49.246;9.410;2024-01-25T10:50:37;20.55;;;5.13;;
69185;SDS011;56298;49.246;9.410;2024-01-25T10:53:04;22.63;;;5.57;;
69185;SDS011;56298;49.246;9.410;2024-01-25T10:55:31;20.90;;;4.40;;
69185;SDS011;56298;49.246;9.410;2024-01-25T10:57:56;22.93;;;4.90;;
69185;SDS011;56298;49.246;9.410;2024-01-25T11:00:22;21.43;;;4.53;;
69185;SDS011;56298;49.246;9.410;2024-01-25T11:02:47;26.83;;;5.10;;
69185;SDS011;56298;49.246;9.410;2024-01-25T11:05:15;20.70;;;3.83;;
69185;SDS011;56298;49.246;9.410;2024-01-25T11:07:45;20.85;;;4.03;;
69185;SDS011;56298;49.246;9.410;2024-01-25T11:10:12;22.60;;;4.10;;
69185;SDS011;56298;49.246;9.410;2024-01-25T11:12:55;20.88;;;3.92;;
69185;SDS011;56298;49.246;9.410;2024-01-25T11:15:32;18.07;;;3.50;;
69185;SDS011;56298;49.246;9.410;2024-01-25T11:18:00;20.58;;;3.50;;
69185;SDS011;56298;49.246;9.410;2024-01-25T11:20:26;19.25;;;3.95;;
69185;SDS011;56298;49.246;9.410;2024-01-25T11:25:31;20.40;;;3.60;;
69185;SDS011;56298;49.246;9.410;2024-01-25T11:27:58;20.10;;;3.80;;
69185;SDS011;56298;49.246;9.410;2024-01-25T11:30:25;18.73;;;3.78;;
69185;SDS011;56298;49.246;9.410;2024-01-25T11:32:51;18.92;;;3.63;;
69185;SDS011;56298;49.246;9.410;2024-01-25T11:35:17;16.40;;;3.58;;
69185;SDS011;56298;49.246;9.410;2024-01-25T11:37:45;22.83;;;3.75;;
69185;SDS011;56298;49.246;9.410;2024-01-25T11:40:11;18.52;;;3.35;;
69185;SDS011;56298;49.246;9.410;2024-01-25T11:42:38;17.10;;;3.23;;
69185;SDS011;56298;49.246;9.410;2024-01-25T11:45:08;17.33;;;3.83;;
69185;SDS011;56298;49.246;9.410;2024-01-25T11:47:35;20.73;;;3.90;;
69185;SDS011;56298;49.246;9.410;2024-01-25T11:50:00;16.52;;;3.50;;
69185;SDS011;56298;49.246;9.410;2024-01-25T11:52:27;18.63;;;3.63;;
69185;SDS011;56298;49.246;9.410;2024-01-25T11:54:53;17.33;;;3.40;;
69185;SDS011;56298;49.246;9.410;2024-01-25T11:57:18;16.13;;;3.63;;
69185;SDS011;56298;49.246;9.410;2024-01-25T11:59:44;17.02;;;3.17;;
69185;SDS011;56298;49.246;9.410;2024-01-25T12:02:11;15.57;;;3.10;;
69185;SDS011;56298;49.246;9.410;2024-01-25T12:04:37;15.90;;;3.20;;
69185;SDS011;56298;49.246;9.410;2024-01-25T12:07:02;16.00;;;3.60;;
69185;SDS011;56298;49.246;9.410;2024-01-25T12:09:28;19.38;;;3.83;;
69185;SDS011;56298;49.246;9.410;2024-01-25T12:11:53;14.20;;;3.10;;
69185;SDS011;56298;49.246;9.410;2024-01-25T12:14:20;17.17;;;3.37;;
69185;SDS011;56298;49.246;9.410;2024-01-25T12:16:45;17.35;;;3.53;;
69185;SDS011;56298;49.246;9.410;2024-01-25T12:19:10;20.60;;;3.67;;
69185;SDS011;56298;49.246;9.410;2024-01-25T12:21:35;17.73;;;3.40;;
69185;SDS011;56298;49.246;9.410;2024-01-25T12:24:01;14.43;;;3.00;;
69185;SDS011;56298;49.246;9.410;2024-01-25T12:26:27;18.42;;;3.22;;
69185;SDS011;56298;49.246;9.410;2024-01-25T12:28:52;13.23;;;3.03;;
69185;SDS011;56298;49.246;9.410;2024-01-25T12:31:18;16.50;;;2.90;;
69185;SDS011;56298;49.246;9.410;2024-01-25T12:33:43;17.83;;;3.40;;
69185;SDS011;56298;49.246;9.410;2024-01-25T12:36:09;18.67;;;3.57;;
69185;SDS011;56298;49.246;9.410;2024-01-25T12:38:34;17.33;;;3.20;;
69185;SDS011;56298;49.246;9.410;2024-01-25T12:41:00;19.27;;;3.25;;
69185;SDS011;56298;49.246;9.410;2024-01-25T12:43:25;17.67;;;3.50;;
69185;SDS011;56298;49.246;9.410;2024-01-25T12:45:51;17.47;;;4.00;;
69185;SDS011;56298;49.246;9.410;2024-01-25T12:48:17;18.60;;;3.50;;
69185;SDS011;56298;49.246;9.410;2024-01-25T12:50:42;16.95;;;3.55;;
69185;SDS011;56298;49.246;9.410;2024-01-25T12:53:09;18.60;;;3.40;;
69185;SDS011;56298;49.246;9.410;2024-01-25T12:55:35;19.95;;;3.30;;
69185;SDS011;56298;49.246;9.410;2024-01-25T12:58:01;17.50;;;3.67;;
69185;SDS011;56298;49.246;9.410;2024-01-25T13:00:26;19.90;;;3.80;;
69185;SDS011;56298;49.246;9.410;2024-01-25T13:02:51;19.00;;;3.37;;
69185;SDS011;56298;49.246;9.410;2024-01-25T13:05:18;18.42;;;3.47;;
69185;SDS011;56298;49.246;9.410;2024-01-25T13:07:43;18.47;;;3.83;;
69185;SDS011;56298;49.246;9.410;2024-01-25T13:10:08;15.30;;;3.33;;
69185;SDS011;56298;49.246;9.410;2024-01-25T13:12:36;17.10;;;2.92;;
69185;SDS011;56298;49.246;9.410;2024-01-25T13:15:01;21.60;;;6.27;;
69185;SDS011;56298;49.246;9.410;2024-01-25T13:17:27;14.48;;;3.60;;
69185;SDS011;56298;49.246;9.410;2024-01-25T13:19:53;17.63;;;3.50;;
69185;SDS011;56298;49.246;9.410;2024-01-25T13:22:18;15.93;;;3.00;;
69185;SDS011;56298;49.246;9.410;2024-01-25T13:24:45;14.65;;;3.03;;
69185;SDS011;56298;49.246;9.410;2024-01-25T13:27:11;16.93;;;2.80;;
69185;SDS011;56298;49.246;9.410;2024-01-25T13:29:36;17.10;;;2.87;;
69185;SDS011;56298;49.246;9.410;2024-01-25T13:32:02;14.20;;;2.80;;
69185;SDS011;56298;49.246;9.410;2024-01-25T13:34:27;12.27;;;3.00;;
69185;SDS011;56298;49.246;9.410;2024-01-25T13:36:52;14.93;;;2.97;;
69185;SDS011;56298;49.246;9.410;2024-01-25T13:39:17;14.67;;;2.67;;
69185;SDS011;56298;49.246;9.410;2024-01-25T13:41:43;16.60;;;2.80;;
69185;SDS011;56298;49.246;9.410;2024-01-25T13:44:08;15.60;;;2.87;;
69185;SDS011;56298;49.246;9.410;2024-01-25T13:46:33;16.27;;;3.10;;
69185;SDS011;56298;49.246;9.410;2024-01-25T13:48:58;16.63;;;2.97;;
69185;SDS011;56298;49.246;9.410;2024-01-25T13:51:24;12.90;;;2.63;;
69185;SDS011;56298;49.246;9.410;2024-01-25T13:53:49;14.00;;;3.05;;
69185;SDS011;56298;49.246;9.410;2024-01-25T13:56:15;11.95;;;2.20;;
69185;SDS011;56298;49.246;9.410;2024-01-25T13:58:41;15.18;;;2.65;;
69185;SDS011;56298;49.246;9.410;2024-01-25T14:01:06;13.60;;;2.57;;
69185;SDS011;56298;49.246;9.410;2024-01-25T14:03:31;15.50;;;2.97;;
69185;SDS011;56298;49.246;9.410;2024-01-25T14:05:57;16.10;;;2.53;;
69185;SDS011;56298;49.246;9.410;2024-01-25T14:08:22;16.03;;;2.67;;
69185;SDS011;56298;49.246;9.410;2024-01-25T14:10:48;15.88;;;3.10;;
69185;SDS011;56298;49.246;9.410;2024-01-25T14:13:13;15.27;;;3.00;;
69185;SDS011;56298;49.246;9.410;2024-01-25T14:15:38;17.52;;;3.38;;
69185;SDS011;56298;49.246;9.410;2024-01-25T14:18:04;19.98;;;3.75;;
69185;SDS011;56298;49.246;9.410;2024-01-25T14:20:29;12.37;;;2.77;;
69185;SDS011;56298;49.246;9.410;2024-01-25T14:22:54;15.00;;;2.70;;
69185;SDS011;56298;49.246;9.410;2024-01-25T14:25:19;17.50;;;3.10;;
69185;SDS011;56298;49.246;9.410;2024-01-25T14:27:45;10.63;;;2.80;;